Delaware — WDD4172 — position and weather

sailwx.info

Track history (hours):
 
Tides and Currents Weather Stations Pressure Air Temp Water Temp Dewpoint Dewpoint Depression Visibility Wind Speed Wind Dir Waves Ship Positions

Delaware

Owner: Overfalls Leasing LLC, Lewes, DE. More information available from US FCC via Universal Licensing System and Coast Guard Vessel Documentation Center.

Last reported at 2015-Apr-18 16:33 UTC. Time now 2015-Apr-18 16:46 UTC.
Position N 39°56' W 075°08'.

Type: Pilot. MMSI: 367141210.

Date/timePositionNaut miles runAvg speedWind from/ knotsBaromVisibWave heightAir tempDewpointWater temp
2015-Apr-18 16:33N 39°56' W 075°08'0 0.0
2015-Apr-18 15:33N 39°56' W 075°08'2 1.7
2015-Apr-18 14:33N 39°54' W 075°08'2 1.7
2015-Apr-18 13:33N 39°56' W 075°08'0 0.0
2015-Apr-18 12:33N 39°56' W 075°08'1 1.4
2015-Apr-18 11:33N 39°55' W 075°08'1 1.4
2015-Apr-18 10:33N 39°56' W 075°08'0 0.0
2015-Apr-18 09:33N 39°56' W 075°08'0 0.0
2015-Apr-18 08:33N 39°56' W 075°08'2 2.1
2015-Apr-18 07:34N 39°54' W 075°08'2 2.1
2015-Apr-18 06:33N 39°56' W 075°08'0 0.0
2015-Apr-18 05:34N 39°56' W 075°08'0 0.0
2015-Apr-18 04:34N 39°56' W 075°08'0 0.0
2015-Apr-18 03:33N 39°56' W 075°08'0 0.0
2015-Apr-18 02:33N 39°56' W 075°08'0 0.0
2015-Apr-18 01:34N 39°56' W 075°08'0 0.0
2015-Apr-18 00:33N 39°56' W 075°08'0 0.0
2015-Apr-17 23:33N 39°56' W 075°08'0 0.0
2015-Apr-17 22:33N 39°56' W 075°08'0 0.0
2015-Apr-17 21:33N 39°56' W 075°08'0 0.0
2015-Apr-17 20:33N 39°56' W 075°08'0 0.0
2015-Apr-17 19:33N 39°56' W 075°08'0 0.0
2015-Apr-17 18:33N 39°56' W 075°08'1 1.3
2015-Apr-17 17:33N 39°57' W 075°08'1 1.3
2015-Apr-17 16:33N 39°56' W 075°08'0 0.0
2015-Apr-17 15:33N 39°56' W 075°08'0 0.0
2015-Apr-17 14:33N 39°56' W 075°08'0 0.0
2015-Apr-17 13:33N 39°56' W 075°08'0 0.0
2015-Apr-17 12:33N 39°56' W 075°08'0 0.0
2015-Apr-17 11:33N 39°56' W 075°08'0 0.0
2015-Apr-17 10:34N 39°56' W 075°08'0 0.0
2015-Apr-17 09:33N 39°56' W 075°08'0 0.0
2015-Apr-17 08:34N 39°56' W 075°08'0 0.0
2015-Apr-17 07:33N 39°56' W 075°08'0 0.0
2015-Apr-17 06:34N 39°56' W 075°08'0 0.0
2015-Apr-17 05:33N 39°56' W 075°08'0 0.0
2015-Apr-17 04:34N 39°56' W 075°08'0 0.0
2015-Apr-17 03:34N 39°56' W 075°08'0 0.0
2015-Apr-17 02:34N 39°56' W 075°08'0 0.0
2015-Apr-17 01:33N 39°56' W 075°08'0 0.0
2015-Apr-17 00:34N 39°56' W 075°08'0 0.0
2015-Apr-16 23:33N 39°56' W 075°08'0 0.0
2015-Apr-16 22:34N 39°56' W 075°08'0 0.0
2015-Apr-16 21:33N 39°56' W 075°08'0 0.0
2015-Apr-16 20:34N 39°56' W 075°08'0 0.0
2015-Apr-16 19:33N 39°56' W 075°08'0 0.0
2015-Apr-16 18:33N 39°56' W 075°08'0 0.0
2015-Apr-16 17:34N 39°56' W 075°08'0 0.0
2015-Apr-16 16:33N 39°56' W 075°08'0 0.0
2015-Apr-16 15:34N 39°56' W 075°08'0 0.0
2015-Apr-16 14:33N 39°56' W 075°08'0 0.0
2015-Apr-16 13:33N 39°56' W 075°08'0 0.0
2015-Apr-16 12:33N 39°56' W 075°08'1 0.9
2015-Apr-16 11:33N 39°55' W 075°08'1 0.9
2015-Apr-16 10:33N 39°56' W 075°08'0 0.0
2015-Apr-16 09:33N 39°56' W 075°08'0 0.0
2015-Apr-16 08:33N 39°56' W 075°08'0 0.0
2015-Apr-16 07:33N 39°56' W 075°08'0 0.0
2015-Apr-16 06:33N 39°56' W 075°08'0 0.0
2015-Apr-16 05:33N 39°56' W 075°08'0 0.0
2015-Apr-16 04:33N 39°56' W 075°08'0 0.0
2015-Apr-16 03:33N 39°56' W 075°08'0 0.0
2015-Apr-16 02:34N 39°56' W 075°08'0 0.0
2015-Apr-16 01:34N 39°56' W 075°08'0 0.0
2015-Apr-16 00:33N 39°56' W 075°08'2 1.8
2015-Apr-15 23:34N 39°54' W 075°08'2 1.8
2015-Apr-15 22:33N 39°56' W 075°08'0 0.0
2015-Apr-15 21:34N 39°56' W 075°08'0 0.0
2015-Apr-15 20:33N 39°56' W 075°08'0 0.0
2015-Apr-15 19:33N 39°56' W 075°08'5 4.8
2015-Apr-15 18:33N 39°59' W 075°04'5 4.6
2015-Apr-15 17:33N 40°02' W 074°59'9 9.5
2015-Apr-15 16:34N 39°56' W 075°08'0 0.0
2015-Apr-15 15:34N 39°56' W 075°08'0 0.0
2015-Apr-15 14:34N 39°56' W 075°08'0 0.0
2015-Apr-15 13:34N 39°56' W 075°08'0 0.0
2015-Apr-15 12:34N 39°56' W 075°08'0 0.0
2015-Apr-15 11:34N 39°56' W 075°08'0 0.0
2015-Apr-15 10:33N 39°56' W 075°08'0 0.0
2015-Apr-15 09:33N 39°56' W 075°08'0 0.0
2015-Apr-15 08:33N 39°56' W 075°08'0 0.0
2015-Apr-15 07:33N 39°56' W 075°08'0 0.4
2015-Apr-15 06:33N 39°56' W 075°08'0 0.4
2015-Apr-15 05:33N 39°56' W 075°08'0 0.0
2015-Apr-15 04:33N 39°56' W 075°08'0 0.0
2015-Apr-15 03:33N 39°56' W 075°08'0 0.0
2015-Apr-15 02:33N 39°56' W 075°08'0 0.0
2015-Apr-15 01:33N 39°56' W 075°08'0 0.0
2015-Apr-15 00:33N 39°56' W 075°08'0 0.1
2015-Apr-14 23:34N 39°56' W 075°08'0 0.1
2015-Apr-14 22:33N 39°56' W 075°08'0 0.2
2015-Apr-14 21:34N 39°56' W 075°08'0 0.2
2015-Apr-14 20:34N 39°56' W 075°08'0 0.0
2015-Apr-14 19:34N 39°56' W 075°08'3 3.5
2015-Apr-14 18:33N 39°59' W 075°05'1 1.1
2015-Apr-14 17:33N 39°59' W 075°04'5 4.6
2015-Apr-14 16:34N 39°56' W 075°08'0 0.0
2015-Apr-14 15:34N 39°56' W 075°08'0 0.0
2015-Apr-14 14:34N 39°56' W 075°08'0 0.0
2015-Apr-14 13:34N 39°56' W 075°08'0 0.0
2015-Apr-14 12:34N 39°56' W 075°08'0 0.0
2015-Apr-14 11:34N 39°56' W 075°08'0 0.0
2015-Apr-14 10:34N 39°56' W 075°08'6 6.2
2015-Apr-14 09:34N 40°01' W 075°03'6 6.1
2015-Apr-14 08:33N 39°56' W 075°08'0 0.1
2015-Apr-14 07:34N 39°56' W 075°08'0 0.3
2015-Apr-14 06:33N 39°56' W 075°08'0 0.3
2015-Apr-14 05:34N 39°56' W 075°08'0 0.0
2015-Apr-14 04:34N 39°56' W 075°08'0 0.0
2015-Apr-14 03:33N 39°56' W 075°08'0 0.0
2015-Apr-14 02:34N 39°56' W 075°08'0 0.0
2015-Apr-14 01:34N 39°56' W 075°08'0 0.0
2015-Apr-14 00:33N 39°56' W 075°08'0 0.0
2015-Apr-13 23:34N 39°56' W 075°08'0 0.0
2015-Apr-13 22:34N 39°56' W 075°08'0 0.0
2015-Apr-13 21:34N 39°56' W 075°08'0 0.0
2015-Apr-13 20:33N 39°56' W 075°08'1 0.7
2015-Apr-13 19:34N 39°57' W 075°08'1 0.7
2015-Apr-13 18:33N 39°56' W 075°08'0 0.0
2015-Apr-13 17:33N 39°56' W 075°08'0 0.0
2015-Apr-13 16:33N 39°56' W 075°08'  
Track history (hours):
 
Tides and Currents Weather Stations Pressure Air Temp Water Temp Dewpoint Dewpoint Depression Visibility Wind Speed Wind Dir Waves Ship Positions

Delaware

Owner: Overfalls Leasing LLC, Lewes, DE. More information available from US FCC via Universal Licensing System and Coast Guard Vessel Documentation Center.

Last reported at 2015-Apr-18 16:33 UTC. Time now 2015-Apr-18 16:46 UTC.
Position N 39°56' W 075°08'.

Type: Pilot. MMSI: 367141210.

Date/timePositionNaut miles runAvg speedWind from/ knotsBaromVisibWave heightAir tempDewpointWater temp
2015-Apr-18 16:33N 39°56' W 075°08'0 0.0
2015-Apr-18 15:33N 39°56' W 075°08'2 1.7
2015-Apr-18 14:33N 39°54' W 075°08'2 1.7
2015-Apr-18 13:33N 39°56' W 075°08'0 0.0
2015-Apr-18 12:33N 39°56' W 075°08'1 1.4
2015-Apr-18 11:33N 39°55' W 075°08'1 1.4
2015-Apr-18 10:33N 39°56' W 075°08'0 0.0
2015-Apr-18 09:33N 39°56' W 075°08'0 0.0
2015-Apr-18 08:33N 39°56' W 075°08'2 2.1
2015-Apr-18 07:34N 39°54' W 075°08'2 2.1
2015-Apr-18 06:33N 39°56' W 075°08'0 0.0
2015-Apr-18 05:34N 39°56' W 075°08'0 0.0
2015-Apr-18 04:34N 39°56' W 075°08'0 0.0
2015-Apr-18 03:33N 39°56' W 075°08'0 0.0
2015-Apr-18 02:33N 39°56' W 075°08'0 0.0
2015-Apr-18 01:34N 39°56' W 075°08'0 0.0
2015-Apr-18 00:33N 39°56' W 075°08'0 0.0
2015-Apr-17 23:33N 39°56' W 075°08'0 0.0
2015-Apr-17 22:33N 39°56' W 075°08'0 0.0
2015-Apr-17 21:33N 39°56' W 075°08'0 0.0
2015-Apr-17 20:33N 39°56' W 075°08'0 0.0
2015-Apr-17 19:33N 39°56' W 075°08'0 0.0
2015-Apr-17 18:33N 39°56' W 075°08'1 1.3
2015-Apr-17 17:33N 39°57' W 075°08'1 1.3
2015-Apr-17 16:33N 39°56' W 075°08'0 0.0
2015-Apr-17 15:33N 39°56' W 075°08'0 0.0
2015-Apr-17 14:33N 39°56' W 075°08'0 0.0
2015-Apr-17 13:33N 39°56' W 075°08'0 0.0
2015-Apr-17 12:33N 39°56' W 075°08'0 0.0
2015-Apr-17 11:33N 39°56' W 075°08'0 0.0
2015-Apr-17 10:34N 39°56' W 075°08'0 0.0
2015-Apr-17 09:33N 39°56' W 075°08'0 0.0
2015-Apr-17 08:34N 39°56' W 075°08'0 0.0
2015-Apr-17 07:33N 39°56' W 075°08'0 0.0
2015-Apr-17 06:34N 39°56' W 075°08'0 0.0
2015-Apr-17 05:33N 39°56' W 075°08'0 0.0
2015-Apr-17 04:34N 39°56' W 075°08'0 0.0
2015-Apr-17 03:34N 39°56' W 075°08'0 0.0
2015-Apr-17 02:34N 39°56' W 075°08'0 0.0
2015-Apr-17 01:33N 39°56' W 075°08'0 0.0
2015-Apr-17 00:34N 39°56' W 075°08'0 0.0
2015-Apr-16 23:33N 39°56' W 075°08'0 0.0
2015-Apr-16 22:34N 39°56' W 075°08'0 0.0
2015-Apr-16 21:33N 39°56' W 075°08'0 0.0
2015-Apr-16 20:34N 39°56' W 075°08'0 0.0
2015-Apr-16 19:33N 39°56' W 075°08'0 0.0
2015-Apr-16 18:33N 39°56' W 075°08'0 0.0
2015-Apr-16 17:34N 39°56' W 075°08'0 0.0
2015-Apr-16 16:33N 39°56' W 075°08'0 0.0
2015-Apr-16 15:34N 39°56' W 075°08'0 0.0
2015-Apr-16 14:33N 39°56' W 075°08'0 0.0
2015-Apr-16 13:33N 39°56' W 075°08'0 0.0
2015-Apr-16 12:33N 39°56' W 075°08'1 0.9
2015-Apr-16 11:33N 39°55' W 075°08'1 0.9
2015-Apr-16 10:33N 39°56' W 075°08'0 0.0
2015-Apr-16 09:33N 39°56' W 075°08'0 0.0
2015-Apr-16 08:33N 39°56' W 075°08'0 0.0
2015-Apr-16 07:33N 39°56' W 075°08'0 0.0
2015-Apr-16 06:33N 39°56' W 075°08'0 0.0
2015-Apr-16 05:33N 39°56' W 075°08'0 0.0
2015-Apr-16 04:33N 39°56' W 075°08'0 0.0
2015-Apr-16 03:33N 39°56' W 075°08'0 0.0
2015-Apr-16 02:34N 39°56' W 075°08'0 0.0
2015-Apr-16 01:34N 39°56' W 075°08'0 0.0
2015-Apr-16 00:33N 39°56' W 075°08'2 1.8
2015-Apr-15 23:34N 39°54' W 075°08'2 1.8
2015-Apr-15 22:33N 39°56' W 075°08'0 0.0
2015-Apr-15 21:34N 39°56' W 075°08'0 0.0
2015-Apr-15 20:33N 39°56' W 075°08'0 0.0
2015-Apr-15 19:33N 39°56' W 075°08'5 4.8
2015-Apr-15 18:33N 39°59' W 075°04'5 4.6
2015-Apr-15 17:33N 40°02' W 074°59'9 9.5
2015-Apr-15 16:34N 39°56' W 075°08'0 0.0
2015-Apr-15 15:34N 39°56' W 075°08'0 0.0
2015-Apr-15 14:34N 39°56' W 075°08'0 0.0
2015-Apr-15 13:34N 39°56' W 075°08'0 0.0
2015-Apr-15 12:34N 39°56' W 075°08'0 0.0
2015-Apr-15 11:34N 39°56' W 075°08'0 0.0
2015-Apr-15 10:33N 39°56' W 075°08'0 0.0
2015-Apr-15 09:33N 39°56' W 075°08'0 0.0
2015-Apr-15 08:33N 39°56' W 075°08'0 0.0
2015-Apr-15 07:33N 39°56' W 075°08'0 0.4
2015-Apr-15 06:33N 39°56' W 075°08'0 0.4
2015-Apr-15 05:33N 39°56' W 075°08'0 0.0
2015-Apr-15 04:33N 39°56' W 075°08'0 0.0
2015-Apr-15 03:33N 39°56' W 075°08'0 0.0
2015-Apr-15 02:33N 39°56' W 075°08'0 0.0
2015-Apr-15 01:33N 39°56' W 075°08'0 0.0
2015-Apr-15 00:33N 39°56' W 075°08'0 0.1
2015-Apr-14 23:34N 39°56' W 075°08'0 0.1
2015-Apr-14 22:33N 39°56' W 075°08'0 0.2
2015-Apr-14 21:34N 39°56' W 075°08'0 0.2
2015-Apr-14 20:34N 39°56' W 075°08'0 0.0
2015-Apr-14 19:34N 39°56' W 075°08'3 3.5
2015-Apr-14 18:33N 39°59' W 075°05'1 1.1
2015-Apr-14 17:33N 39°59' W 075°04'5 4.6
2015-Apr-14 16:34N 39°56' W 075°08'0 0.0
2015-Apr-14 15:34N 39°56' W 075°08'0 0.0
2015-Apr-14 14:34N 39°56' W 075°08'0 0.0
2015-Apr-14 13:34N 39°56' W 075°08'0 0.0
2015-Apr-14 12:34N 39°56' W 075°08'0 0.0
2015-Apr-14 11:34N 39°56' W 075°08'0 0.0
2015-Apr-14 10:34N 39°56' W 075°08'6 6.2
2015-Apr-14 09:34N 40°01' W 075°03'6 6.1
2015-Apr-14 08:33N 39°56' W 075°08'0 0.1
2015-Apr-14 07:34N 39°56' W 075°08'0 0.3
2015-Apr-14 06:33N 39°56' W 075°08'0 0.3
2015-Apr-14 05:34N 39°56' W 075°08'0 0.0
2015-Apr-14 04:34N 39°56' W 075°08'0 0.0
2015-Apr-14 03:33N 39°56' W 075°08'0 0.0
2015-Apr-14 02:34N 39°56' W 075°08'0 0.0
2015-Apr-14 01:34N 39°56' W 075°08'0 0.0
2015-Apr-14 00:33N 39°56' W 075°08'0 0.0
2015-Apr-13 23:34N 39°56' W 075°08'0 0.0
2015-Apr-13 22:34N 39°56' W 075°08'0 0.0
2015-Apr-13 21:34N 39°56' W 075°08'0 0.0
2015-Apr-13 20:33N 39°56' W 075°08'1 0.7
2015-Apr-13 19:34N 39°57' W 075°08'1 0.7
2015-Apr-13 18:33N 39°56' W 075°08'0 0.0
2015-Apr-13 17:33N 39°56' W 075°08'0 0.0
2015-Apr-13 16:33N 39°56' W 075°08'  

Dump ship's entire track history